sensor_id;sensor_type;location;lat;lon;timestamp;pressure;altitude;pressure_sealevel;temperature;humidity
71573;BME280;59408;51.032;9.410;2022-07-22T00:00:30;99361.25;;;16.75;85.01
71573;BME280;59408;51.032;9.410;2022-07-22T00:02:57;99365.97;;;16.75;84.85
71573;BME280;59408;51.032;9.410;2022-07-22T00:05:24;99357.28;;;16.73;85.09
71573;BME280;59408;51.032;9.410;2022-07-22T00:07:50;99354.09;;;16.71;85.02
71573;BME280;59408;51.032;9.410;2022-07-22T00:10:17;99362.00;;;16.72;85.08
71573;BME280;59408;51.032;9.410;2022-07-22T00:12:45;99363.94;;;16.72;85.03
71573;BME280;59408;51.032;9.410;2022-07-22T00:15:12;99369.03;;;16.70;84.71
71573;BME280;59408;51.032;9.410;2022-07-22T00:17:38;99359.59;;;16.71;84.99
71573;BME280;59408;51.032;9.410;2022-07-22T00:20:07;99367.06;;;16.70;85.30
71573;BME280;59408;51.032;9.410;2022-07-22T00:22:34;99362.72;;;16.69;85.22
71573;BME280;59408;51.032;9.410;2022-07-22T00:25:00;99359.16;;;16.69;85.41
71573;BME280;59408;51.032;9.410;2022-07-22T00:27:27;99356.84;;;16.71;85.35
71573;BME280;59408;51.032;9.410;2022-07-22T00:29:55;99358.06;;;16.73;85.56
71573;BME280;59408;51.032;9.410;2022-07-22T00:32:21;99354.88;;;16.71;85.44
71573;BME280;59408;51.032;9.410;2022-07-22T00:34:48;99353.66;;;16.69;85.26
71573;BME280;59408;51.032;9.410;2022-07-22T00:37:15;99352.13;;;16.71;85.33
71573;BME280;59408;51.032;9.410;2022-07-22T00:39:41;99354.47;;;16.69;85.20
71573;BME280;59408;51.032;9.410;2022-07-22T00:42:08;99360.34;;;16.68;85.30
71573;BME280;59408;51.032;9.410;2022-07-22T00:44:35;99349.31;;;16.68;85.45
71573;BME280;59408;51.032;9.410;2022-07-22T00:47:07;99354.00;;;16.64;85.48
71573;BME280;59408;51.032;9.410;2022-07-22T00:49:34;99352.41;;;16.63;85.51
71573;BME280;59408;51.032;9.410;2022-07-22T00:52:01;99350.44;;;16.63;85.57
71573;BME280;59408;51.032;9.410;2022-07-22T00:54:27;99345.19;;;16.58;85.66
71573;BME280;59408;51.032;9.410;2022-07-22T00:56:54;99356.66;;;16.60;86.05
71573;BME280;59408;51.032;9.410;2022-07-22T00:59:21;99350.34;;;16.59;86.08
71573;BME280;59408;51.032;9.410;2022-07-22T01:01:48;99352.66;;;16.57;85.97
71573;BME280;59408;51.032;9.410;2022-07-22T01:04:16;99344.84;;;16.59;85.54
71573;BME280;59408;51.032;9.410;2022-07-22T01:06:43;99349.53;;;16.55;85.96
71573;BME280;59408;51.032;9.410;2022-07-22T01:09:10;99347.13;;;16.54;85.99
71573;BME280;59408;51.032;9.410;2022-07-22T01:11:37;99359.31;;;16.53;86.10
71573;BME280;59408;51.032;9.410;2022-07-22T01:14:03;99348.28;;;16.53;86.27
71573;BME280;59408;51.032;9.410;2022-07-22T01:16:30;99346.34;;;16.53;86.17
71573;BME280;59408;51.032;9.410;2022-07-22T01:18:57;99359.75;;;16.55;86.30
71573;BME280;59408;51.032;9.410;2022-07-22T01:21:26;99353.00;;;16.52;86.19
71573;BME280;59408;51.032;9.410;2022-07-22T01:23:52;99355.41;;;16.54;85.99
71573;BME280;59408;51.032;9.410;2022-07-22T01:26:19;99360.09;;;16.53;86.29
71573;BME280;59408;51.032;9.410;2022-07-22T01:28:45;99358.09;;;16.50;86.72
71573;BME280;59408;51.032;9.410;2022-07-22T01:31:12;99350.63;;;16.51;86.66
71573;BME280;59408;51.032;9.410;2022-07-22T01:33:39;99356.50;;;16.49;86.54
71573;BME280;59408;51.032;9.410;2022-07-22T01:36:07;99349.78;;;16.47;86.66
71573;BME280;59408;51.032;9.410;2022-07-22T01:38:35;99356.09;;;16.47;86.59
71573;BME280;59408;51.032;9.410;2022-07-22T01:41:02;99361.19;;;16.49;86.75
71573;BME280;59408;51.032;9.410;2022-07-22T01:43:30;99354.50;;;16.46;86.78
71573;BME280;59408;51.032;9.410;2022-07-22T01:45:56;99358.41;;;16.45;86.61
71573;BME280;59408;51.032;9.410;2022-07-22T01:48:23;99360.00;;;16.46;86.71
71573;BME280;59408;51.032;9.410;2022-07-22T01:50:50;99360.38;;;16.45;86.50
71573;BME280;59408;51.032;9.410;2022-07-22T01:53:17;99362.31;;;16.44;86.53
71573;BME280;59408;51.032;9.410;2022-07-22T01:55:45;99357.19;;;16.43;86.64
71573;BME280;59408;51.032;9.410;2022-07-22T01:58:12;99366.59;;;16.42;86.69
71573;BME280;59408;51.032;9.410;2022-07-22T02:00:38;99355.16;;;16.40;86.31
71573;BME280;59408;51.032;9.410;2022-07-22T02:03:05;99368.56;;;16.41;86.79
71573;BME280;59408;51.032;9.410;2022-07-22T02:05:32;99364.22;;;16.40;86.66
71573;BME280;59408;51.032;9.410;2022-07-22T02:08:00;99371.31;;;16.41;86.60
71573;BME280;59408;51.032;9.410;2022-07-22T02:10:28;99365.00;;;16.41;86.39
71573;BME280;59408;51.032;9.410;2022-07-22T02:12:56;99364.97;;;16.37;86.39
71573;BME280;59408;51.032;9.410;2022-07-22T02:15:23;99365.38;;;16.39;86.66
71573;BME280;59408;51.032;9.410;2022-07-22T02:17:50;99361.47;;;16.40;86.54
71573;BME280;59408;51.032;9.410;2022-07-22T02:20:17;99368.19;;;16.43;86.36
71573;BME280;59408;51.032;9.410;2022-07-22T02:22:43;99368.56;;;16.41;86.37
71573;BME280;59408;51.032;9.410;2022-07-22T02:25:10;99372.47;;;16.40;86.33
71573;BME280;59408;51.032;9.410;2022-07-22T02:27:37;99363.41;;;16.40;86.42
71573;BME280;59408;51.032;9.410;2022-07-22T02:30:07;99361.47;;;16.40;86.69
71573;BME280;59408;51.032;9.410;2022-07-22T02:32:33;99362.59;;;16.36;86.65
71573;BME280;59408;51.032;9.410;2022-07-22T02:35:00;99360.63;;;16.36;86.47
71573;BME280;59408;51.032;9.410;2022-07-22T02:37:27;99360.25;;;16.38;86.69
71573;BME280;59408;51.032;9.410;2022-07-22T02:39:54;99362.59;;;16.36;86.50
71573;BME280;59408;51.032;9.410;2022-07-22T02:42:21;99364.09;;;16.33;86.41
71573;BME280;59408;51.032;9.410;2022-07-22T02:44:47;99362.16;;;16.34;86.41
71573;BME280;59408;51.032;9.410;2022-07-22T02:47:15;99358.97;;;16.32;86.75
71573;BME280;59408;51.032;9.410;2022-07-22T02:49:42;99363.31;;;16.33;86.56
71573;BME280;59408;51.032;9.410;2022-07-22T02:52:08;99357.38;;;16.31;86.83
71573;BME280;59408;51.032;9.410;2022-07-22T02:54:35;99357.38;;;16.31;86.76
71573;BME280;59408;51.032;9.410;2022-07-22T02:57:02;99358.97;;;16.32;86.95
71573;BME280;59408;51.032;9.410;2022-07-22T02:59:28;99358.56;;;16.30;86.84
71573;BME280;59408;51.032;9.410;2022-07-22T03:01:55;99361.31;;;16.30;86.86
71573;BME280;59408;51.032;9.410;2022-07-22T03:04:23;99356.19;;;16.28;86.91
71573;BME280;59408;51.032;9.410;2022-07-22T03:06:49;99362.47;;;16.29;86.92
71573;BME280;59408;51.032;9.410;2022-07-22T03:09:16;99358.13;;;16.28;86.86
71573;BME280;59408;51.032;9.410;2022-07-22T03:11:42;99363.28;;;16.29;87.02
71573;BME280;59408;51.032;9.410;2022-07-22T03:14:09;99361.31;;;16.30;86.84
71573;BME280;59408;51.032;9.410;2022-07-22T03:16:36;99367.19;;;16.28;87.14
71573;BME280;59408;51.032;9.410;2022-07-22T03:19:02;99362.03;;;16.27;87.03
71573;BME280;59408;51.032;9.410;2022-07-22T03:21:30;99361.25;;;16.26;86.82
71573;BME280;59408;51.032;9.410;2022-07-22T03:23:57;99367.56;;;16.27;87.02
71573;BME280;59408;51.032;9.410;2022-07-22T03:26:23;99358.06;;;16.24;86.99
71573;BME280;59408;51.032;9.410;2022-07-22T03:28:50;99352.13;;;16.22;87.27
71573;BME280;59408;51.032;9.410;2022-07-22T03:31:17;99361.13;;;16.19;87.10
71573;BME280;59408;51.032;9.410;2022-07-22T03:33:44;99352.88;;;16.19;87.66
71573;BME280;59408;51.032;9.410;2022-07-22T03:36:11;99355.63;;;16.19;87.73
71573;BME280;59408;51.032;9.410;2022-07-22T03:38:39;99358.03;;;16.20;87.15
71573;BME280;59408;51.032;9.410;2022-07-22T03:41:05;99366.28;;;16.20;87.65
71573;BME280;59408;51.032;9.410;2022-07-22T03:43:32;99371.00;;;16.20;87.85
71573;BME280;59408;51.032;9.410;2022-07-22T03:45:58;99379.25;;;16.20;87.29
71573;BME280;59408;51.032;9.410;2022-07-22T03:48:25;99377.59;;;16.15;88.07
71573;BME280;59408;51.032;9.410;2022-07-22T03:50:51;99370.84;;;16.13;88.34
71573;BME280;59408;51.032;9.410;2022-07-22T03:53:18;99376.75;;;16.11;88.41
71573;BME280;59408;51.032;9.410;2022-07-22T03:55:46;99370.84;;;16.13;88.10
71573;BME280;59408;51.032;9.410;2022-07-22T03:58:13;99370.84;;;16.13;88.27
71573;BME280;59408;51.032;9.410;2022-07-22T04:00:39;99374.03;;;16.15;88.43
71573;BME280;59408;51.032;9.410;2022-07-22T04:03:06;99376.75;;;16.11;88.29
71573;BME280;59408;51.032;9.410;2022-07-22T04:05:33;99370.44;;;16.11;88.53
71573;BME280;59408;51.032;9.410;2022-07-22T04:07:59;99373.59;;;16.13;88.48
71573;BME280;59408;51.032;9.410;2022-07-22T04:10:26;99379.09;;;16.13;88.31
71573;BME280;59408;51.032;9.410;2022-07-22T04:12:54;99374.41;;;16.13;88.19
71573;BME280;59408;51.032;9.410;2022-07-22T04:15:21;99369.66;;;16.10;88.38
71573;BME280;59408;51.032;9.410;2022-07-22T04:17:47;99378.25;;;16.09;88.54
71573;BME280;59408;51.032;9.410;2022-07-22T04:20:14;99379.91;;;16.13;88.55
71573;BME280;59408;51.032;9.410;2022-07-22T04:22:40;99376.34;;;16.13;88.66
71573;BME280;59408;51.032;9.410;2022-07-22T04:25:08;99372.44;;;16.14;88.49
71573;BME280;59408;51.032;9.410;2022-07-22T04:27:35;99374.81;;;16.15;88.39
71573;BME280;59408;51.032;9.410;2022-07-22T04:30:04;99383.97;;;16.19;88.41
71573;BME280;59408;51.032;9.410;2022-07-22T04:32:31;99378.84;;;16.21;88.34
71573;BME280;59408;51.032;9.410;2022-07-22T04:34:57;99382.91;;;16.28;88.13
71573;BME280;59408;51.032;9.410;2022-07-22T04:37:24;99383.28;;;16.26;87.85
71573;BME280;59408;51.032;9.410;2022-07-22T04:39:50;99385.66;;;16.28;87.59
71573;BME280;59408;51.032;9.410;2022-07-22T04:42:17;99383.34;;;16.30;87.98
71573;BME280;59408;51.032;9.410;2022-07-22T04:44:44;99383.34;;;16.30;87.47
71573;BME280;59408;51.032;9.410;2022-07-22T04:47:12;99378.66;;;16.34;87.45
71573;BME280;59408;51.032;9.410;2022-07-22T04:49:38;99375.19;;;16.37;87.80
71573;BME280;59408;51.032;9.410;2022-07-22T04:52:05;99373.63;;;16.39;87.27
71573;BME280;59408;51.032;9.410;2022-07-22T04:54:35;99381.13;;;16.39;87.39
71573;BME280;59408;51.032;9.410;2022-07-22T04:57:02;99385.03;;;16.38;87.59
71573;BME280;59408;51.032;9.410;2022-07-22T04:59:28;99385.44;;;16.40;87.33
71573;BME280;59408;51.032;9.410;2022-07-22T05:01:55;99385.78;;;16.35;87.19
71573;BME280;59408;51.032;9.410;2022-07-22T05:04:23;99380.19;;;16.31;87.30
71573;BME280;59408;51.032;9.410;2022-07-22T05:06:49;99392.78;;;16.32;88.24
71573;BME280;59408;51.032;9.410;2022-07-22T05:09:16;99384.53;;;16.32;87.71
71573;BME280;59408;51.032;9.410;2022-07-22T05:11:43;99391.22;;;16.31;87.98
71573;BME280;59408;51.032;9.410;2022-07-22T05:14:10;99406.53;;;16.29;87.37
71573;BME280;59408;51.032;9.410;2022-07-22T05:16:37;99398.66;;;16.31;87.46
71573;BME280;59408;51.032;9.410;2022-07-22T05:19:04;99396.72;;;16.31;87.60
71573;BME280;59408;51.032;9.410;2022-07-22T05:21:32;99396.66;;;16.28;87.66
71573;BME280;59408;51.032;9.410;2022-07-22T05:23:59;99399.09;;;16.33;87.47
71573;BME280;59408;51.032;9.410;2022-07-22T05:26:25;99400.69;;;16.34;87.32
71573;BME280;59408;51.032;9.410;2022-07-22T05:28:52;99406.19;;;16.34;87.63
71573;BME280;59408;51.032;9.410;2022-07-22T05:31:19;99404.72;;;16.40;87.74
71573;BME280;59408;51.032;9.410;2022-07-22T05:33:46;99411.03;;;16.40;87.07
71573;BME280;59408;51.032;9.410;2022-07-22T05:36:13;99411.47;;;16.42;87.23
71573;BME280;59408;51.032;9.410;2022-07-22T05:38:41;99415.00;;;16.43;86.95
71573;BME280;59408;51.032;9.410;2022-07-22T05:41:07;99407.53;;;16.43;87.09
71573;BME280;59408;51.032;9.410;2022-07-22T05:43:34;99404.78;;;16.43;86.86
71573;BME280;59408;51.032;9.410;2022-07-22T05:46:00;99406.69;;;16.39;86.98
71573;BME280;59408;51.032;9.410;2022-07-22T05:48:27;99411.47;;;16.42;87.04
71573;BME280;59408;51.032;9.410;2022-07-22T05:50:54;99410.72;;;16.45;86.86
71573;BME280;59408;51.032;9.410;2022-07-22T05:53:20;99417.81;;;16.46;87.00
71573;BME280;59408;51.032;9.410;2022-07-22T05:55:48;99403.19;;;16.42;86.74
71573;BME280;59408;51.032;9.410;2022-07-22T05:58:15;99404.06;;;16.46;87.09
71573;BME280;59408;51.032;9.410;2022-07-22T06:00:42;99408.69;;;16.42;86.53
71573;BME280;59408;51.032;9.410;2022-07-22T06:03:08;99411.81;;;16.41;85.73
71573;BME280;59408;51.032;9.410;2022-07-22T06:05:43;99411.09;;;16.44;85.54
71573;BME280;59408;51.032;9.410;2022-07-22T06:08:10;99416.53;;;16.40;85.02
71573;BME280;59408;51.032;9.410;2022-07-22T06:10:36;99420.84;;;16.38;84.21
71573;BME280;59408;51.032;9.410;2022-07-22T06:13:04;99421.19;;;16.36;84.50
71573;BME280;59408;51.032;9.410;2022-07-22T06:15:31;99412.44;;;16.31;84.50
71573;BME280;59408;51.032;9.410;2022-07-22T06:17:58;99414.81;;;16.32;85.63
71573;BME280;59408;51.032;9.410;2022-07-22T06:20:24;99423.09;;;16.32;86.05
71573;BME280;59408;51.032;9.410;2022-07-22T06:22:51;99425.78;;;16.29;85.10
71573;BME280;59408;51.032;9.410;2022-07-22T06:25:17;99417.09;;;16.27;85.98
71573;BME280;59408;51.032;9.410;2022-07-22T06:28:05;99413.13;;;16.24;86.14
71573;BME280;59408;51.032;9.410;2022-07-22T06:30:32;99419.41;;;16.25;85.89
71573;BME280;59408;51.032;9.410;2022-07-22T06:32:59;99426.16;;;16.27;85.31
71573;BME280;59408;51.032;9.410;2022-07-22T06:35:25;99409.28;;;16.29;86.39
71573;BME280;59408;51.032;9.410;2022-07-22T06:37:52;99404.25;;;16.34;87.26
71573;BME280;59408;51.032;9.410;2022-07-22T06:40:30;99415.69;;;16.36;86.69
71573;BME280;59408;51.032;9.410;2022-07-22T06:42:57;99417.69;;;16.39;85.83
71573;BME280;59408;51.032;9.410;2022-07-22T06:45:25;99416.16;;;16.42;85.19
71573;BME280;59408;51.032;9.410;2022-07-22T06:47:52;99412.94;;;16.36;84.45
71573;BME280;59408;51.032;9.410;2022-07-22T06:50:19;99405.16;;;16.42;84.91
71573;BME280;59408;51.032;9.410;2022-07-22T06:52:46;99415.19;;;16.53;85.13
71573;BME280;59408;51.032;9.410;2022-07-22T06:55:12;99417.78;;;16.66;84.23
71573;BME280;59408;51.032;9.410;2022-07-22T06:57:39;99420.28;;;16.74;83.41
71573;BME280;59408;51.032;9.410;2022-07-22T07:00:07;99413.34;;;16.84;83.13
71573;BME280;59408;51.032;9.410;2022-07-22T07:02:35;99407.16;;;16.94;82.68
71573;BME280;59408;51.032;9.410;2022-07-22T07:05:02;99410.13;;;17.08;82.29
71573;BME280;59408;51.032;9.410;2022-07-22T07:07:29;99407.50;;;17.19;81.81
71573;BME280;59408;51.032;9.410;2022-07-22T07:09:55;99409.56;;;17.25;80.96
71573;BME280;59408;51.032;9.410;2022-07-22T07:12:24;99413.91;;;17.26;81.00
71573;BME280;59408;51.032;9.410;2022-07-22T07:14:51;99413.16;;;17.29;80.19
71573;BME280;59408;51.032;9.410;2022-07-22T07:17:43;99406.81;;;17.25;79.18
71573;BME280;59408;51.032;9.410;2022-07-22T07:20:10;99410.53;;;17.40;80.78
71573;BME280;59408;51.032;9.410;2022-07-22T07:22:39;99418.06;;;17.43;78.71
71573;BME280;59408;51.032;9.410;2022-07-22T07:25:07;99418.13;;;17.47;78.96
71573;BME280;59408;51.032;9.410;2022-07-22T07:27:49;99414.31;;;17.58;80.23
71573;BME280;59408;51.032;9.410;2022-07-22T07:30:15;99408.50;;;17.67;80.39
71573;BME280;59408;51.032;9.410;2022-07-22T07:32:44;99404.22;;;17.69;78.38
71573;BME280;59408;51.032;9.410;2022-07-22T07:35:10;99411.88;;;17.83;78.43
71573;BME280;59408;51.032;9.410;2022-07-22T07:37:37;99412.72;;;17.91;78.04
71573;BME280;59408;51.032;9.410;2022-07-22T07:40:05;99406.03;;;17.92;76.25
71573;BME280;59408;51.032;9.410;2022-07-22T07:42:32;99409.69;;;18.03;77.84
71573;BME280;59408;51.032;9.410;2022-07-22T07:44:59;99416.56;;;18.20;75.98
71573;BME280;59408;51.032;9.410;2022-07-22T07:47:26;99413.13;;;18.30;77.25
71573;BME280;59408;51.032;9.410;2022-07-22T07:49:54;99415.84;;;18.26;74.95
71573;BME280;59408;51.032;9.410;2022-07-22T07:52:20;99417.00;;;18.25;75.26
71573;BME280;59408;51.032;9.410;2022-07-22T07:54:47;99419.44;;;18.34;77.17
71573;BME280;59408;51.032;9.410;2022-07-22T07:57:34;99415.88;;;18.30;75.48
71573;BME280;59408;51.032;9.410;2022-07-22T08:00:00;99414.28;;;18.32;75.94
71573;BME280;59408;51.032;9.410;2022-07-22T08:02:27;99406.38;;;18.31;74.66
71573;BME280;59408;51.032;9.410;2022-07-22T08:04:56;99406.44;;;18.34;75.17
71573;BME280;59408;51.032;9.410;2022-07-22T08:07:25;99410.97;;;18.53;75.06
71573;BME280;59408;51.032;9.410;2022-07-22T08:09:52;99407.91;;;18.69;75.31
71573;BME280;59408;51.032;9.410;2022-07-22T08:12:39;99413.09;;;18.77;73.04
71573;BME280;59408;51.032;9.410;2022-07-22T08:15:07;99406.84;;;18.88;74.66
71573;BME280;59408;51.032;9.410;2022-07-22T08:17:34;99404.22;;;19.09;72.87
71573;BME280;59408;51.032;9.410;2022-07-22T08:20:03;99405.19;;;19.38;73.20
71573;BME280;59408;51.032;9.410;2022-07-22T08:22:31;99398.09;;;19.44;73.51
71573;BME280;59408;51.032;9.410;2022-07-22T08:24:58;99399.78;;;19.66;73.56
71573;BME280;59408;51.032;9.410;2022-07-22T08:27:25;99401.75;;;19.76;70.15
71573;BME280;59408;51.032;9.410;2022-07-22T08:29:54;99393.47;;;19.87;68.89
71573;BME280;59408;51.032;9.410;2022-07-22T08:32:21;99395.47;;;19.83;70.23
71573;BME280;59408;51.032;9.410;2022-07-22T08:34:48;99396.66;;;19.96;70.35
71573;BME280;59408;51.032;9.410;2022-07-22T08:37:16;99391.91;;;19.97;68.53
71573;BME280;59408;51.032;9.410;2022-07-22T08:39:43;99398.66;;;19.99;68.63
71573;BME280;59408;51.032;9.410;2022-07-22T08:42:09;99403.81;;;20.01;69.66
71573;BME280;59408;51.032;9.410;2022-07-22T08:44:36;99395.53;;;20.18;67.94
71573;BME280;59408;51.032;9.410;2022-07-22T08:47:03;99393.53;;;20.22;67.59
71573;BME280;59408;51.032;9.410;2022-07-22T08:49:49;99396.75;;;20.21;68.37
71573;BME280;59408;51.032;9.410;2022-07-22T08:52:17;99393.56;;;20.37;69.18
71573;BME280;59408;51.032;9.410;2022-07-22T08:54:47;99393.53;;;20.58;67.79
71573;BME280;59408;51.032;9.410;2022-07-22T08:57:13;99397.13;;;20.65;66.91
71573;BME280;59408;51.032;9.410;2022-07-22T08:59:51;99392.75;;;20.50;67.95
71573;BME280;59408;51.032;9.410;2022-07-22T09:02:18;99396.34;;;20.65;66.43
71573;BME280;59408;51.032;9.410;2022-07-22T09:04:54;99398.31;;;20.29;66.97
71573;BME280;59408;51.032;9.410;2022-07-22T09:07:31;99391.97;;;20.50;68.43
71573;BME280;59408;51.032;9.410;2022-07-22T09:09:58;99387.56;;;20.91;68.37
71573;BME280;59408;51.032;9.410;2022-07-22T09:12:26;99389.53;;;21.09;66.49
71573;BME280;59408;51.032;9.410;2022-07-22T09:14:56;99390.72;;;21.04;65.01
71573;BME280;59408;51.032;9.410;2022-07-22T09:17:25;99389.13;;;21.17;64.37
71573;BME280;59408;51.032;9.410;2022-07-22T09:19:52;99381.16;;;21.26;64.99
71573;BME280;59408;51.032;9.410;2022-07-22T09:22:37;99385.09;;;21.39;63.52
71573;BME280;59408;51.032;9.410;2022-07-22T09:25:24;99384.94;;;21.75;62.41
71573;BME280;59408;51.032;9.410;2022-07-22T09:27:54;99388.84;;;21.85;60.13
71573;BME280;59408;51.032;9.410;2022-07-22T09:30:23;99385.56;;;22.00;61.31
71573;BME280;59408;51.032;9.410;2022-07-22T09:32:53;99385.50;;;22.11;60.52
71573;BME280;59408;51.032;9.410;2022-07-22T09:35:21;99381.94;;;22.59;61.59
71573;BME280;59408;51.032;9.410;2022-07-22T09:37:50;99387.78;;;22.71;59.72
71573;BME280;59408;51.032;9.410;2022-07-22T09:40:19;99379.44;;;23.12;57.83
71573;BME280;59408;51.032;9.410;2022-07-22T09:42:49;99386.50;;;23.17;57.57
71573;BME280;59408;51.032;9.410;2022-07-22T09:45:17;99380.75;;;23.01;57.57
71573;BME280;59408;51.032;9.410;2022-07-22T09:47:45;99385.53;;;23.34;56.85
71573;BME280;59408;51.032;9.410;2022-07-22T09:50:20;99379.78;;;23.79;56.92
71573;BME280;59408;51.032;9.410;2022-07-22T09:52:47;99386.63;;;23.74;54.26
71573;BME280;59408;51.032;9.410;2022-07-22T09:55:17;99385.50;;;23.68;54.98
71573;BME280;59408;51.032;9.410;2022-07-22T09:57:44;99380.44;;;23.29;54.76
71573;BME280;59408;51.032;9.410;2022-07-22T10:00:13;99385.25;;;23.25;55.53
71573;BME280;59408;51.032;9.410;2022-07-22T10:02:44;99377.88;;;23.42;56.01
71573;BME280;59408;51.032;9.410;2022-07-22T10:05:13;99389.31;;;23.81;54.28
71573;BME280;59408;51.032;9.410;2022-07-22T10:07:41;99389.59;;;23.60;54.34
71573;BME280;59408;51.032;9.410;2022-07-22T10:10:10;99385.63;;;24.15;53.63
71573;BME280;59408;51.032;9.410;2022-07-22T10:12:38;99376.66;;;24.30;52.65
71573;BME280;59408;51.032;9.410;2022-07-22T10:15:07;99382.72;;;24.72;51.21
71573;BME280;59408;51.032;9.410;2022-07-22T10:17:35;99374.19;;;24.59;51.20
71573;BME280;59408;51.032;9.410;2022-07-22T10:20:05;99370.53;;;25.05;49.76
71573;BME280;59408;51.032;9.410;2022-07-22T10:22:53;99369.84;;;25.41;49.58
71573;BME280;59408;51.032;9.410;2022-07-22T10:25:27;99375.63;;;25.50;49.20
71573;BME280;59408;51.032;9.410;2022-07-22T10:27:58;99366.50;;;25.86;48.47
71573;BME280;59408;51.032;9.410;2022-07-22T10:30:27;99370.56;;;26.33;45.86
71573;BME280;59408;51.032;9.410;2022-07-22T10:33:05;99361.88;;;25.00;48.91
71573;BME280;59408;51.032;9.410;2022-07-22T10:35:34;99370.97;;;25.63;48.26
71573;BME280;59408;51.032;9.410;2022-07-22T10:38:05;99356.59;;;26.49;45.45
71573;BME280;59408;51.032;9.410;2022-07-22T10:40:46;99357.25;;;26.53;46.14
71573;BME280;59408;51.032;9.410;2022-07-22T10:43:16;99352.44;;;26.70;45.50
71573;BME280;59408;51.032;9.410;2022-07-22T10:45:48;99360.72;;;27.60;43.76
71573;BME280;59408;51.032;9.410;2022-07-22T10:48:18;99357.47;;;28.51;41.53
71573;BME280;59408;51.032;9.410;2022-07-22T10:50:55;99356.63;;;29.10;42.37
71573;BME280;59408;51.032;9.410;2022-07-22T10:53:43;99351.63;;;28.92;42.70
71573;BME280;59408;51.032;9.410;2022-07-22T10:56:22;99357.75;;;29.12;40.98
71573;BME280;59408;51.032;9.410;2022-07-22T10:59:07;99354.78;;;28.34;42.09
71573;BME280;59408;51.032;9.410;2022-07-22T11:01:35;99357.56;;;27.46;44.50
71573;BME280;59408;51.032;9.410;2022-07-22T11:04:10;99351.69;;;27.27;45.58
71573;BME280;59408;51.032;9.410;2022-07-22T11:06:44;99344.97;;;27.92;43.27
71573;BME280;59408;51.032;9.410;2022-07-22T11:09:12;99346.16;;;28.29;43.90
71573;BME280;59408;51.032;9.410;2022-07-22T11:11:42;99340.38;;;28.92;42.53
71573;BME280;59408;51.032;9.410;2022-07-22T11:14:15;99346.88;;;28.67;41.60
71573;BME280;59408;51.032;9.410;2022-07-22T11:16:43;99342.66;;;27.61;43.43
71573;BME280;59408;51.032;9.410;2022-07-22T11:19:11;99336.59;;;26.80;45.84
71573;BME280;59408;51.032;9.410;2022-07-22T11:21:38;99331.28;;;26.98;45.46
71573;BME280;59408;51.032;9.410;2022-07-22T11:24:11;99336.41;;;27.57;46.08
71573;BME280;59408;51.032;9.410;2022-07-22T11:26:40;99345.81;;;28.27;42.88
71573;BME280;59408;51.032;9.410;2022-07-22T11:29:08;99331.81;;;28.14;42.17
71573;BME280;59408;51.032;9.410;2022-07-22T11:31:36;99337.72;;;28.42;41.45
71573;BME280;59408;51.032;9.410;2022-07-22T11:34:05;99335.16;;;28.82;40.59
71573;BME280;59408;51.032;9.410;2022-07-22T11:36:32;99337.34;;;28.99;40.77
71573;BME280;59408;51.032;9.410;2022-07-22T11:38:59;99333.91;;;29.48;41.16
71573;BME280;59408;51.032;9.410;2022-07-22T11:41:28;99335.50;;;28.71;41.18
71573;BME280;59408;51.032;9.410;2022-07-22T11:43:55;99330.16;;;28.64;41.83
71573;BME280;59408;51.032;9.410;2022-07-22T11:46:22;99326.63;;;29.29;40.33
71573;BME280;59408;51.032;9.410;2022-07-22T11:48:51;99328.38;;;28.57;42.26
71573;BME280;59408;51.032;9.410;2022-07-22T11:51:18;99323.13;;;28.34;41.78
71573;BME280;59408;51.032;9.410;2022-07-22T11:53:47;99323.00;;;28.85;42.63
71573;BME280;59408;51.032;9.410;2022-07-22T11:56:13;99317.53;;;28.47;40.75
71573;BME280;59408;51.032;9.410;2022-07-22T11:58:42;99316.09;;;28.17;42.80
71573;BME280;59408;51.032;9.410;2022-07-22T12:01:10;99309.91;;;28.69;41.83
71573;BME280;59408;51.032;9.410;2022-07-22T12:03:39;99298.25;;;29.14;41.34
71573;BME280;59408;51.032;9.410;2022-07-22T12:06:08;99290.63;;;29.45;40.54
71573;BME280;59408;51.032;9.410;2022-07-22T12:08:41;99284.66;;;29.34;39.32
71573;BME280;59408;51.032;9.410;2022-07-22T12:11:09;99287.59;;;28.65;41.60
71573;BME280;59408;51.032;9.410;2022-07-22T12:13:35;99280.63;;;29.66;40.58
71573;BME280;59408;51.032;9.410;2022-07-22T12:16:21;99281.84;;;30.14;38.38
71573;BME280;59408;51.032;9.410;2022-07-22T12:18:53;99285.03;;;30.35;38.67
71573;BME280;59408;51.032;9.410;2022-07-22T12:21:22;99284.81;;;29.62;38.65
71573;BME280;59408;51.032;9.410;2022-07-22T12:23:50;99285.81;;;30.35;38.18
71573;BME280;59408;51.032;9.410;2022-07-22T12:26:17;99282.31;;;28.89;40.28
71573;BME280;59408;51.032;9.410;2022-07-22T12:28:43;99278.22;;;29.56;40.06
71573;BME280;59408;51.032;9.410;2022-07-22T12:31:10;99283.06;;;29.02;40.22
71573;BME280;59408;51.032;9.410;2022-07-22T12:33:46;99280.66;;;29.75;41.15
71573;BME280;59408;51.032;9.410;2022-07-22T12:36:13;99269.41;;;30.70;37.60
71573;BME280;59408;51.032;9.410;2022-07-22T12:38:41;99273.28;;;31.27;37.23
71573;BME280;59408;51.032;9.410;2022-07-22T12:41:24;99270.63;;;31.66;35.70
71573;BME280;59408;51.032;9.410;2022-07-22T12:43:51;99266.91;;;31.51;35.65
71573;BME280;59408;51.032;9.410;2022-07-22T12:46:18;99263.56;;;31.28;36.47
71573;BME280;59408;51.032;9.410;2022-07-22T12:48:48;99271.78;;;30.63;38.47
71573;BME280;59408;51.032;9.410;2022-07-22T12:51:16;99265.50;;;30.86;38.68
71573;BME280;59408;51.032;9.410;2022-07-22T12:53:44;99263.56;;;31.10;38.47
71573;BME280;59408;51.032;9.410;2022-07-22T12:56:12;99274.22;;;31.99;35.99
71573;BME280;59408;51.032;9.410;2022-07-22T12:58:38;99269.94;;;31.38;36.44
71573;BME280;59408;51.032;9.410;2022-07-22T13:01:05;99272.03;;;31.10;37.92
71573;BME280;59408;51.032;9.410;2022-07-22T13:03:33;99277.72;;;31.52;35.94
71573;BME280;59408;51.032;9.410;2022-07-22T13:06:01;99271.41;;;30.97;37.55